HDA800 ZSSS-VHHX
Flight info
| Callsign | HDA800 |
|---|---|
| Flight time | 1h 59m |
| Altitude | 36100 |
| Route | NXD71D NXD W131 AKDIM A470 BEBEM/N0454F361 A470 DOTMI/N0448F300 A470 MAGOG |
| Aircraft | A320/M-SDE3FGHIRWY/LB1 |
Departure
| Time | 2026-05-08 04:42 |
|---|---|
| Airport | Shanghai Hongqiao International Airport (ZSSS) |
Arrival
| Time | 2026-05-08 06:42 |
|---|---|
| Airport | Hong Kong International Airport Kai Tak (VHHX) |
| Time | Latitude | Longitude | Altitude | Speed | Heading |
|---|---|---|---|---|---|
| 2026-05-08 04:06 | 31.19645 | 121.34067 | 19 ft | 0 kts | 87° |
| 2026-05-08 04:07 | 31.19645 | 121.34065 | 19 ft | 0 kts | 87° |
| 2026-05-08 04:33 | 31.19644 | 121.34060 | 19 ft | 3 kts | 88° |
| 2026-05-08 04:33 | 31.19644 | 121.34028 | 19 ft | 4 kts | 95° |
| 2026-05-08 04:33 | 31.19649 | 121.33998 | 19 ft | 4 kts | 113° |
| 2026-05-08 04:34 | 31.19663 | 121.33976 | 21 ft | 4 kts | 165° |
| 2026-05-08 04:34 | 31.19673 | 121.33973 | 20 ft | 1 kts | 177° |
| 2026-05-08 04:38 | 31.19659 | 121.33974 | 19 ft | 5 kts | 177° |
| 2026-05-08 04:38 | 31.19621 | 121.33950 | 19 ft | 9 kts | 246° |
| 2026-05-08 04:38 | 31.19583 | 121.33894 | 19 ft | 11 kts | 184° |
| 2026-05-08 04:38 | 31.19503 | 121.33898 | 19 ft | 12 kts | 177° |
| 2026-05-08 04:39 | 31.19407 | 121.33903 | 19 ft | 15 kts | 177° |
| 2026-05-08 04:39 | 31.19287 | 121.33909 | 19 ft | 19 kts | 177° |
| 2026-05-08 04:39 | 31.19148 | 121.33917 | 19 ft | 21 kts | 178° |
| 2026-05-08 04:39 | 31.18991 | 121.33925 | 19 ft | 24 kts | 177° |
| 2026-05-08 04:40 | 31.18821 | 121.33934 | 19 ft | 25 kts | 177° |
| 2026-05-08 04:40 | 31.18638 | 121.33944 | 19 ft | 27 kts | 177° |
| 2026-05-08 04:40 | 31.18489 | 121.33953 | 19 ft | 14 kts | 178° |
| 2026-05-08 04:40 | 31.18395 | 121.33920 | 19 ft | 14 kts | 224° |
| 2026-05-08 04:41 | 31.18367 | 121.33817 | 18 ft | 14 kts | 267° |
| 2026-05-08 04:41 | 31.18369 | 121.33720 | 18 ft | 9 kts | 299° |
| 2026-05-08 04:41 | 31.18403 | 121.33705 | 18 ft | 0 kts | 356° |
| 2026-05-08 04:41 | 31.18458 | 121.33701 | 18 ft | 33 kts | 357° |
| 2026-05-08 04:42 | 31.18921 | 121.33677 | 18 ft | 96 kts | 357° |
| 2026-05-08 04:42 | 31.19761 | 121.33632 | 19 ft | 144 kts | 358° |
| 2026-05-08 04:42 | 31.20882 | 121.33572 | 207 ft | 165 kts | 358° |
| 2026-05-08 04:42 | 31.22007 | 121.33495 | 820 ft | 164 kts | 352° |
| 2026-05-08 04:43 | 31.22991 | 121.32776 | 1322 ft | 178 kts | 305° |
| 2026-05-08 04:43 | 31.23594 | 121.31514 | 1932 ft | 183 kts | 301° |
| 2026-05-08 04:43 | 31.24236 | 121.30131 | 2269 ft | 204 kts | 300° |
| 2026-05-08 04:43 | 31.24957 | 121.28615 | 2658 ft | 222 kts | 302° |
| 2026-05-08 04:44 | 31.25744 | 121.26998 | 3244 ft | 232 kts | 303° |
| 2026-05-08 04:44 | 31.26554 | 121.25342 | 3991 ft | 237 kts | 303° |
| 2026-05-08 04:44 | 31.27340 | 121.23634 | 4704 ft | 244 kts | 293° |
| 2026-05-08 04:44 | 31.27482 | 121.21627 | 4953 ft | 258 kts | 256° |
| 2026-05-08 04:45 | 31.26620 | 121.19701 | 5419 ft | 275 kts | 236° |
| 2026-05-08 04:45 | 31.25494 | 121.17886 | 6239 ft | 282 kts | 234° |
| 2026-05-08 04:45 | 31.24293 | 121.16038 | 6976 ft | 288 kts | 234° |
| 2026-05-08 04:45 | 31.23015 | 121.14222 | 7751 ft | 292 kts | 224° |
| 2026-05-08 04:46 | 31.21356 | 121.12841 | 8554 ft | 296 kts | 207° |
| 2026-05-08 04:46 | 31.19393 | 121.12080 | 9359 ft | 300 kts | 189° |
| 2026-05-08 04:46 | 31.17296 | 121.12004 | 10125 ft | 304 kts | 177° |
| 2026-05-08 04:46 | 31.15150 | 121.12124 | 10585 ft | 318 kts | 178° |
| 2026-05-08 04:47 | 31.12864 | 121.12244 | 10742 ft | 341 kts | 180° |
| 2026-05-08 04:47 | 31.10474 | 121.11861 | 11096 ft | 351 kts | 199° |
| 2026-05-08 04:47 | 31.08284 | 121.10610 | 11675 ft | 353 kts | 218° |
| 2026-05-08 04:47 | 31.06538 | 121.08621 | 12328 ft | 352 kts | 236° |
| 2026-05-08 04:48 | 31.05423 | 121.06105 | 12975 ft | 350 kts | 254° |
| 2026-05-08 04:48 | 31.04740 | 121.03374 | 13661 ft | 352 kts | 256° |
| 2026-05-08 04:48 | 31.04074 | 121.00652 | 14290 ft | 354 kts | 256° |
| 2026-05-08 04:48 | 31.03390 | 120.97861 | 14923 ft | 355 kts | 256° |
| 2026-05-08 04:49 | 31.02717 | 120.95131 | 15547 ft | 355 kts | 256° |
| 2026-05-08 04:49 | 31.02031 | 120.92362 | 16139 ft | 357 kts | 256° |
| 2026-05-08 04:49 | 31.01328 | 120.89539 | 16752 ft | 358 kts | 255° |
| 2026-05-08 04:49 | 31.00631 | 120.86748 | 17354 ft | 359 kts | 255° |
| 2026-05-08 04:50 | 30.99942 | 120.83991 | 18000 ft | 359 kts | 255° |
| 2026-05-08 04:50 | 30.99251 | 120.81214 | 18748 ft | 356 kts | 255° |
| 2026-05-08 04:50 | 30.98561 | 120.78441 | 19333 ft | 356 kts | 255° |
| 2026-05-08 04:50 | 30.97870 | 120.75661 | 19856 ft | 358 kts | 255° |
| 2026-05-08 04:51 | 30.97176 | 120.72877 | 20389 ft | 360 kts | 254° |
| 2026-05-08 04:51 | 30.96472 | 120.70066 | 20907 ft | 362 kts | 254° |
| 2026-05-08 04:51 | 30.95764 | 120.67239 | 21421 ft | 364 kts | 254° |
| 2026-05-08 04:51 | 30.95292 | 120.65358 | 21746 ft | 366 kts | 254° |
| 2026-05-08 04:52 | 30.94336 | 120.61541 | 22389 ft | 369 kts | 254° |
| 2026-05-08 04:52 | 30.93617 | 120.58669 | 22843 ft | 371 kts | 254° |
| 2026-05-08 04:52 | 30.93136 | 120.56752 | 23147 ft | 372 kts | 254° |
| 2026-05-08 04:52 | 30.92406 | 120.53854 | 23593 ft | 374 kts | 254° |
| 2026-05-08 04:53 | 30.91673 | 120.50946 | 23986 ft | 376 kts | 254° |
| 2026-05-08 04:53 | 30.90934 | 120.48016 | 24339 ft | 378 kts | 254° |
| 2026-05-08 04:53 | 30.89969 | 120.45151 | 24690 ft | 382 kts | 244° |
| 2026-05-08 04:53 | 30.88484 | 120.42570 | 25036 ft | 387 kts | 232° |
| 2026-05-08 04:54 | 30.86514 | 120.40395 | 25339 ft | 396 kts | 221° |
| 2026-05-08 04:54 | 30.84258 | 120.38526 | 25657 ft | 400 kts | 220° |
| 2026-05-08 04:54 | 30.81985 | 120.36660 | 25982 ft | 402 kts | 220° |
| 2026-05-08 04:54 | 30.79692 | 120.34780 | 26307 ft | 404 kts | 220° |
| 2026-05-08 04:55 | 30.77390 | 120.32890 | 26632 ft | 406 kts | 220° |
| 2026-05-08 04:55 | 30.75078 | 120.30990 | 26952 ft | 408 kts | 220° |
| 2026-05-08 04:55 | 30.72756 | 120.29080 | 27274 ft | 410 kts | 220° |
| 2026-05-08 04:55 | 30.70417 | 120.27155 | 27594 ft | 412 kts | 220° |
| 2026-05-08 04:56 | 30.68067 | 120.25222 | 27919 ft | 415 kts | 220° |
| 2026-05-08 04:56 | 30.65707 | 120.23282 | 28185 ft | 417 kts | 221° |
| 2026-05-08 04:56 | 30.63329 | 120.21332 | 28473 ft | 420 kts | 221° |
| 2026-05-08 04:56 | 30.60962 | 120.19395 | 28784 ft | 422 kts | 221° |
| 2026-05-08 04:57 | 30.58532 | 120.17414 | 29207 ft | 422 kts | 221° |
| 2026-05-08 04:57 | 30.56162 | 120.15482 | 29647 ft | 420 kts | 221° |
| 2026-05-08 04:57 | 30.53774 | 120.13535 | 30106 ft | 419 kts | 221° |
| 2026-05-08 04:57 | 30.51395 | 120.11591 | 30520 ft | 418 kts | 222° |
| 2026-05-08 04:58 | 30.49022 | 120.09649 | 30934 ft | 416 kts | 222° |
| 2026-05-08 04:58 | 30.46661 | 120.07719 | 31318 ft | 414 kts | 223° |
| 2026-05-08 04:58 | 30.44311 | 120.05800 | 31762 ft | 412 kts | 223° |
| 2026-05-08 04:58 | 30.41867 | 120.04050 | 32219 ft | 414 kts | 218° |
| 2026-05-08 04:59 | 30.39376 | 120.02386 | 32677 ft | 412 kts | 219° |
| 2026-05-08 04:59 | 30.36895 | 120.00738 | 33134 ft | 409 kts | 219° |
| 2026-05-08 04:59 | 30.34437 | 119.99107 | 33584 ft | 407 kts | 219° |
| 2026-05-08 04:59 | 30.31985 | 119.97482 | 34035 ft | 404 kts | 219° |
| 2026-05-08 05:00 | 30.29555 | 119.95868 | 34428 ft | 402 kts | 219° |
| 2026-05-08 05:00 | 30.27129 | 119.94253 | 34742 ft | 401 kts | 220° |
| 2026-05-08 05:00 | 30.24719 | 119.92645 | 35046 ft | 400 kts | 220° |
| 2026-05-08 05:00 | 30.22305 | 119.91036 | 35338 ft | 400 kts | 220° |
| 2026-05-08 05:01 | 30.19899 | 119.89435 | 35574 ft | 399 kts | 220° |
| 2026-05-08 05:01 | 30.17489 | 119.87835 | 35785 ft | 399 kts | 220° |
| 2026-05-08 05:01 | 30.15081 | 119.86236 | 36044 ft | 399 kts | 220° |
| 2026-05-08 05:01 | 30.12676 | 119.84639 | 36254 ft | 399 kts | 220° |
| 2026-05-08 05:02 | 30.07842 | 119.81432 | 36310 ft | 409 kts | 220° |
| 2026-05-08 05:02 | 30.02877 | 119.78135 | 36312 ft | 413 kts | 220° |
| 2026-05-08 05:03 | 29.97902 | 119.74799 | 36305 ft | 413 kts | 220° |
| 2026-05-08 05:03 | 29.92942 | 119.71454 | 36308 ft | 413 kts | 220° |
| 2026-05-08 05:04 | 29.87948 | 119.68153 | 36305 ft | 419 kts | 216° |
| 2026-05-08 05:04 | 29.85181 | 119.66933 | 36306 ft | 433 kts | 206° |
| 2026-05-08 05:04 | 29.82172 | 119.66297 | 36276 ft | 449 kts | 195° |
| 2026-05-08 05:05 | 29.75869 | 119.65969 | 36284 ft | 454 kts | 194° |
| 2026-05-08 05:05 | 29.69559 | 119.65587 | 36296 ft | 453 kts | 194° |
| 2026-05-08 05:06 | 29.63266 | 119.65117 | 36304 ft | 453 kts | 195° |
| 2026-05-08 05:06 | 29.56942 | 119.64786 | 36285 ft | 457 kts | 192° |
| 2026-05-08 05:07 | 29.50581 | 119.64621 | 36296 ft | 456 kts | 193° |
| 2026-05-08 05:07 | 29.44252 | 119.64285 | 36311 ft | 454 kts | 194° |
| 2026-05-08 05:08 | 29.37939 | 119.63850 | 36321 ft | 454 kts | 194° |
| 2026-05-08 05:08 | 29.31616 | 119.63422 | 36294 ft | 456 kts | 194° |
| 2026-05-08 05:09 | 29.25280 | 119.63035 | 36299 ft | 456 kts | 193° |
| 2026-05-08 05:09 | 29.18979 | 119.62663 | 36308 ft | 457 kts | 194° |
| 2026-05-08 05:10 | 29.09450 | 119.62083 | 36315 ft | 457 kts | 194° |
| 2026-05-08 05:11 | 29.03089 | 119.61690 | 36286 ft | 458 kts | 193° |
| 2026-05-08 05:11 | 28.96717 | 119.61290 | 36294 ft | 460 kts | 193° |
| 2026-05-08 05:12 | 28.90319 | 119.60892 | 36307 ft | 460 kts | 193° |
| 2026-05-08 05:12 | 28.83920 | 119.60497 | 36288 ft | 461 kts | 193° |
| 2026-05-08 05:13 | 28.77512 | 119.60100 | 36303 ft | 462 kts | 193° |
| 2026-05-08 05:13 | 28.71093 | 119.59699 | 36314 ft | 462 kts | 193° |
| 2026-05-08 05:14 | 28.64675 | 119.59296 | 36317 ft | 462 kts | 193° |
| 2026-05-08 05:14 | 28.58258 | 119.58903 | 36277 ft | 462 kts | 193° |
| 2026-05-08 05:15 | 28.51836 | 119.58513 | 36299 ft | 462 kts | 193° |
| 2026-05-08 05:15 | 28.45412 | 119.58123 | 36307 ft | 462 kts | 193° |
| 2026-05-08 05:16 | 28.39032 | 119.57755 | 36309 ft | 462 kts | 193° |
| 2026-05-08 05:16 | 28.32559 | 119.57404 | 36281 ft | 463 kts | 192° |
| 2026-05-08 05:17 | 28.26134 | 119.57044 | 36290 ft | 462 kts | 193° |
| 2026-05-08 05:17 | 28.19747 | 119.56687 | 36294 ft | 462 kts | 192° |
| 2026-05-08 05:18 | 28.13322 | 119.56340 | 36291 ft | 462 kts | 192° |
| 2026-05-08 05:18 | 28.06892 | 119.56036 | 36250 ft | 463 kts | 191° |
| 2026-05-08 05:19 | 28.00424 | 119.55939 | 36270 ft | 466 kts | 189° |
| 2026-05-08 05:19 | 27.93952 | 119.55908 | 36266 ft | 465 kts | 189° |
| 2026-05-08 05:20 | 27.87485 | 119.55854 | 36270 ft | 465 kts | 189° |
| 2026-05-08 05:20 | 27.81012 | 119.55815 | 36262 ft | 465 kts | 189° |
| 2026-05-08 05:21 | 27.74540 | 119.55782 | 36254 ft | 465 kts | 189° |
| 2026-05-08 05:21 | 27.68063 | 119.55751 | 36248 ft | 465 kts | 189° |
| 2026-05-08 05:22 | 27.61588 | 119.55714 | 36252 ft | 465 kts | 189° |
| 2026-05-08 05:22 | 27.55118 | 119.55674 | 36225 ft | 465 kts | 189° |
| 2026-05-08 05:23 | 27.48645 | 119.55642 | 36239 ft | 465 kts | 189° |
| 2026-05-08 05:23 | 27.42181 | 119.55603 | 36237 ft | 465 kts | 189° |
| 2026-05-08 05:24 | 27.35739 | 119.55586 | 36244 ft | 466 kts | 189° |
| 2026-05-08 05:24 | 27.29266 | 119.55584 | 36212 ft | 465 kts | 189° |
| 2026-05-08 05:25 | 27.22792 | 119.55575 | 36219 ft | 465 kts | 189° |
| 2026-05-08 05:25 | 27.16322 | 119.55536 | 36218 ft | 465 kts | 189° |
| 2026-05-08 05:26 | 27.09846 | 119.55486 | 36226 ft | 465 kts | 189° |
| 2026-05-08 05:26 | 27.03363 | 119.55441 | 36206 ft | 465 kts | 188° |
| 2026-05-08 05:27 | 26.96887 | 119.55395 | 36205 ft | 466 kts | 189° |
| 2026-05-08 05:27 | 26.90395 | 119.55350 | 36216 ft | 467 kts | 189° |
| 2026-05-08 05:28 | 26.83898 | 119.55308 | 36227 ft | 466 kts | 189° |
| 2026-05-08 05:28 | 26.77404 | 119.55268 | 36227 ft | 467 kts | 189° |
| 2026-05-08 05:29 | 26.70908 | 119.55221 | 36213 ft | 467 kts | 188° |
| 2026-05-08 05:29 | 26.64403 | 119.55181 | 36221 ft | 468 kts | 188° |
| 2026-05-08 05:30 | 26.57895 | 119.55150 | 36236 ft | 468 kts | 188° |
| 2026-05-08 05:30 | 26.51374 | 119.55106 | 36237 ft | 468 kts | 188° |
| 2026-05-08 05:31 | 26.44870 | 119.55063 | 36219 ft | 467 kts | 188° |
| 2026-05-08 05:31 | 26.38360 | 119.55023 | 36225 ft | 468 kts | 188° |
| 2026-05-08 05:32 | 26.31850 | 119.54957 | 36227 ft | 468 kts | 188° |
| 2026-05-08 05:32 | 26.25381 | 119.54869 | 36227 ft | 468 kts | 189° |
| 2026-05-08 05:33 | 26.19082 | 119.53841 | 36219 ft | 450 kts | 205° |
| 2026-05-08 05:33 | 26.13107 | 119.51783 | 36224 ft | 450 kts | 205° |
| 2026-05-08 05:34 | 26.07117 | 119.49743 | 36219 ft | 450 kts | 205° |
| 2026-05-08 05:34 | 26.01123 | 119.47709 | 36221 ft | 450 kts | 205° |
| 2026-05-08 05:35 | 25.95133 | 119.45674 | 36198 ft | 451 kts | 204° |
| 2026-05-08 05:35 | 25.89125 | 119.43635 | 36206 ft | 452 kts | 204° |
| 2026-05-08 05:36 | 25.83114 | 119.41593 | 36216 ft | 452 kts | 204° |
| 2026-05-08 05:36 | 25.77131 | 119.39461 | 36216 ft | 447 kts | 211° |
| 2026-05-08 05:37 | 25.71969 | 119.35955 | 36197 ft | 429 kts | 228° |
| 2026-05-08 05:37 | 25.67845 | 119.31251 | 36188 ft | 425 kts | 233° |
| 2026-05-08 05:38 | 25.63789 | 119.26475 | 36190 ft | 426 kts | 233° |
| 2026-05-08 05:38 | 25.59740 | 119.21730 | 36197 ft | 427 kts | 233° |
| 2026-05-08 05:39 | 25.55655 | 119.16950 | 36206 ft | 427 kts | 232° |
| 2026-05-08 05:39 | 25.51574 | 119.12171 | 36183 ft | 427 kts | 233° |
| 2026-05-08 05:40 | 25.47490 | 119.07389 | 36182 ft | 428 kts | 232° |
| 2026-05-08 05:40 | 25.43393 | 119.02604 | 36176 ft | 428 kts | 232° |
| 2026-05-08 05:41 | 25.39292 | 118.97818 | 36183 ft | 429 kts | 232° |
| 2026-05-08 05:41 | 25.35190 | 118.93029 | 36187 ft | 429 kts | 232° |
| 2026-05-08 05:42 | 25.31109 | 118.88211 | 36185 ft | 428 kts | 233° |
| 2026-05-08 05:42 | 25.27112 | 118.83341 | 36184 ft | 428 kts | 233° |
| 2026-05-08 05:43 | 25.23114 | 118.78454 | 36180 ft | 429 kts | 233° |
| 2026-05-08 05:43 | 25.19091 | 118.73592 | 36178 ft | 429 kts | 233° |
| 2026-05-08 05:44 | 25.15743 | 118.69562 | 36184 ft | 429 kts | 233° |
| 2026-05-08 05:44 | 25.11718 | 118.64708 | 36168 ft | 428 kts | 233° |
| 2026-05-08 05:45 | 25.07674 | 118.59860 | 36152 ft | 430 kts | 232° |
| 2026-05-08 05:45 | 25.03530 | 118.55092 | 36158 ft | 431 kts | 232° |
| 2026-05-08 05:46 | 24.99370 | 118.50377 | 36155 ft | 432 kts | 232° |
| 2026-05-08 05:46 | 24.95201 | 118.45621 | 36161 ft | 432 kts | 232° |
| 2026-05-08 05:47 | 24.91036 | 118.40857 | 36155 ft | 432 kts | 232° |
| 2026-05-08 05:47 | 24.86872 | 118.36085 | 36157 ft | 432 kts | 232° |
| 2026-05-08 05:48 | 24.82697 | 118.31319 | 36147 ft | 433 kts | 232° |
| 2026-05-08 05:48 | 24.78520 | 118.26555 | 36149 ft | 433 kts | 232° |
| 2026-05-08 05:49 | 24.74338 | 118.21785 | 36153 ft | 433 kts | 232° |
| 2026-05-08 05:49 | 24.70156 | 118.17013 | 36145 ft | 433 kts | 232° |
| 2026-05-08 05:50 | 24.65966 | 118.12247 | 36149 ft | 433 kts | 231° |
| 2026-05-08 05:50 | 24.61773 | 118.07489 | 36136 ft | 433 kts | 232° |
| 2026-05-08 05:51 | 24.57580 | 118.02732 | 36134 ft | 433 kts | 231° |
| 2026-05-08 05:51 | 24.53440 | 117.97929 | 36134 ft | 432 kts | 233° |
| 2026-05-08 05:52 | 24.49456 | 117.93050 | 36138 ft | 432 kts | 234° |
| 2026-05-08 05:52 | 24.45427 | 117.88105 | 36137 ft | 432 kts | 233° |
| 2026-05-08 05:53 | 24.41389 | 117.83229 | 36115 ft | 432 kts | 233° |
| 2026-05-08 05:53 | 24.37354 | 117.78390 | 36122 ft | 432 kts | 233° |
| 2026-05-08 05:54 | 24.33300 | 117.73527 | 36125 ft | 432 kts | 233° |
| 2026-05-08 05:54 | 24.29253 | 117.68642 | 36125 ft | 433 kts | 233° |
| 2026-05-08 05:55 | 24.25201 | 117.63762 | 36129 ft | 433 kts | 233° |
| 2026-05-08 05:55 | 24.21138 | 117.58890 | 36128 ft | 433 kts | 233° |
| 2026-05-08 05:56 | 24.17070 | 117.54023 | 36113 ft | 433 kts | 233° |
| 2026-05-08 05:56 | 24.12915 | 117.49233 | 36123 ft | 438 kts | 227° |
| 2026-05-08 05:57 | 24.08379 | 117.44783 | 36118 ft | 438 kts | 227° |
| 2026-05-08 05:57 | 24.03839 | 117.40339 | 36121 ft | 437 kts | 227° |
| 2026-05-08 05:58 | 23.99310 | 117.35888 | 36123 ft | 438 kts | 227° |
| 2026-05-08 05:58 | 23.94780 | 117.31444 | 36110 ft | 438 kts | 227° |
| 2026-05-08 05:59 | 23.90235 | 117.27003 | 36104 ft | 439 kts | 227° |
| 2026-05-08 05:59 | 23.85674 | 117.22561 | 36085 ft | 440 kts | 227° |
| 2026-05-08 06:00 | 23.81106 | 117.18111 | 36097 ft | 440 kts | 227° |
| 2026-05-08 06:00 | 23.76535 | 117.13648 | 36103 ft | 440 kts | 228° |
| 2026-05-08 06:01 | 23.72195 | 117.08979 | 36097 ft | 437 kts | 232° |
| 2026-05-08 06:01 | 23.68068 | 117.04118 | 36085 ft | 437 kts | 233° |
| 2026-05-08 06:02 | 23.63923 | 116.99255 | 36092 ft | 438 kts | 232° |
| 2026-05-08 06:02 | 23.59737 | 116.94478 | 36092 ft | 439 kts | 231° |
| 2026-05-08 06:03 | 23.55494 | 116.89688 | 36092 ft | 439 kts | 231° |
| 2026-05-08 06:03 | 23.51252 | 116.84899 | 36077 ft | 439 kts | 231° |
| 2026-05-08 06:04 | 23.47022 | 116.80104 | 36078 ft | 439 kts | 232° |
| 2026-05-08 06:04 | 23.42594 | 116.75489 | 36075 ft | 446 kts | 223° |
| 2026-05-08 06:05 | 23.37657 | 116.71387 | 36071 ft | 447 kts | 223° |
| 2026-05-08 06:05 | 23.32715 | 116.67284 | 36075 ft | 447 kts | 223° |
| 2026-05-08 06:06 | 23.27773 | 116.63186 | 36081 ft | 447 kts | 223° |
| 2026-05-08 06:06 | 23.22832 | 116.59084 | 36075 ft | 447 kts | 223° |
| 2026-05-08 06:07 | 23.17923 | 116.55001 | 36072 ft | 447 kts | 223° |
| 2026-05-08 06:07 | 23.12983 | 116.50908 | 36080 ft | 447 kts | 223° |
| 2026-05-08 06:08 | 23.08033 | 116.46814 | 36081 ft | 447 kts | 223° |
| 2026-05-08 06:08 | 23.03092 | 116.42732 | 36082 ft | 447 kts | 223° |
| 2026-05-08 06:09 | 22.98144 | 116.38653 | 36086 ft | 447 kts | 223° |
| 2026-05-08 06:09 | 22.93195 | 116.34576 | 36078 ft | 446 kts | 223° |
| 2026-05-08 06:10 | 22.88276 | 116.30484 | 36075 ft | 446 kts | 223° |
| 2026-05-08 06:10 | 22.83364 | 116.26389 | 36074 ft | 446 kts | 223° |
| 2026-05-08 06:11 | 22.78448 | 116.22305 | 36079 ft | 445 kts | 223° |
| 2026-05-08 06:11 | 22.73532 | 116.18241 | 36081 ft | 444 kts | 223° |
| 2026-05-08 06:12 | 22.68606 | 116.14185 | 36064 ft | 445 kts | 222° |
| 2026-05-08 06:12 | 22.63656 | 116.10160 | 36058 ft | 445 kts | 222° |
| 2026-05-08 06:13 | 22.58730 | 116.06157 | 36057 ft | 446 kts | 222° |
| 2026-05-08 06:13 | 22.53772 | 116.02117 | 36059 ft | 446 kts | 222° |
| 2026-05-08 06:14 | 22.48807 | 115.98070 | 36064 ft | 447 kts | 222° |
| 2026-05-08 06:14 | 22.43840 | 115.94036 | 36051 ft | 447 kts | 222° |
| 2026-05-08 06:15 | 22.38851 | 115.89996 | 36054 ft | 448 kts | 222° |
| 2026-05-08 06:15 | 22.36354 | 115.87975 | 35918 ft | 449 kts | 222° |
| 2026-05-08 06:15 | 22.33987 | 115.85807 | 35672 ft | 442 kts | 231° |
| 2026-05-08 06:15 | 22.32062 | 115.83261 | 35394 ft | 435 kts | 241° |
| 2026-05-08 06:16 | 22.30603 | 115.80416 | 34672 ft | 432 kts | 251° |
| 2026-05-08 06:16 | 22.29674 | 115.77338 | 33889 ft | 432 kts | 260° |
| 2026-05-08 06:16 | 22.29296 | 115.74162 | 33026 ft | 433 kts | 270° |
| 2026-05-08 06:16 | 22.29223 | 115.70939 | 32597 ft | 427 kts | 270° |
| 2026-05-08 06:17 | 22.28999 | 115.64579 | 31556 ft | 421 kts | 269° |
| 2026-05-08 06:17 | 22.28865 | 115.61433 | 31034 ft | 419 kts | 268° |
| 2026-05-08 06:17 | 22.28732 | 115.58295 | 30511 ft | 417 kts | 268° |
| 2026-05-08 06:18 | 22.28603 | 115.55176 | 29987 ft | 415 kts | 268° |
| 2026-05-08 06:18 | 22.28479 | 115.52072 | 29421 ft | 413 kts | 268° |
| 2026-05-08 06:18 | 22.28360 | 115.48990 | 28910 ft | 409 kts | 269° |
| 2026-05-08 06:18 | 22.28242 | 115.45934 | 28401 ft | 406 kts | 269° |
| 2026-05-08 06:19 | 22.28124 | 115.42902 | 27900 ft | 403 kts | 269° |
| 2026-05-08 06:19 | 22.28008 | 115.39889 | 27404 ft | 401 kts | 269° |
| 2026-05-08 06:19 | 22.27893 | 115.36888 | 26918 ft | 398 kts | 269° |
| 2026-05-08 06:19 | 22.27780 | 115.33913 | 26438 ft | 397 kts | 268° |
| 2026-05-08 06:20 | 22.27665 | 115.30939 | 25980 ft | 395 kts | 268° |
| 2026-05-08 06:20 | 22.27548 | 115.27984 | 25526 ft | 394 kts | 268° |
| 2026-05-08 06:20 | 22.27430 | 115.25029 | 25073 ft | 394 kts | 268° |
| 2026-05-08 06:20 | 22.27310 | 115.22077 | 24630 ft | 393 kts | 268° |
| 2026-05-08 06:21 | 22.27190 | 115.19136 | 24182 ft | 393 kts | 268° |
| 2026-05-08 06:21 | 22.27070 | 115.16189 | 23714 ft | 393 kts | 268° |
| 2026-05-08 06:21 | 22.26803 | 115.13250 | 23199 ft | 395 kts | 261° |
| 2026-05-08 06:21 | 22.26278 | 115.10343 | 22718 ft | 393 kts | 260° |
| 2026-05-08 06:22 | 22.25757 | 115.07453 | 22243 ft | 391 kts | 260° |
| 2026-05-08 06:22 | 22.25240 | 115.04574 | 21752 ft | 390 kts | 260° |
| 2026-05-08 06:22 | 22.24729 | 115.01709 | 21267 ft | 388 kts | 260° |
| 2026-05-08 06:22 | 22.24216 | 114.98846 | 20752 ft | 387 kts | 260° |
| 2026-05-08 06:23 | 22.23705 | 114.95999 | 20249 ft | 386 kts | 260° |
| 2026-05-08 06:23 | 22.23229 | 114.93152 | 19743 ft | 385 kts | 264° |
| 2026-05-08 06:23 | 22.23138 | 114.90280 | 19332 ft | 380 kts | 270° |
| 2026-05-08 06:23 | 22.23121 | 114.87436 | 18883 ft | 378 kts | 270° |
| 2026-05-08 06:24 | 22.23090 | 114.84614 | 18462 ft | 374 kts | 269° |
| 2026-05-08 06:24 | 22.23056 | 114.81818 | 17956 ft | 371 kts | 269° |
| 2026-05-08 06:24 | 22.23016 | 114.79047 | 17430 ft | 368 kts | 269° |
| 2026-05-08 06:24 | 22.22977 | 114.76328 | 16914 ft | 366 kts | 269° |
| 2026-05-08 06:25 | 22.22941 | 114.73590 | 16398 ft | 363 kts | 269° |
| 2026-05-08 06:25 | 22.22907 | 114.70901 | 15720 ft | 355 kts | 269° |
| 2026-05-08 06:25 | 22.22874 | 114.68272 | 15235 ft | 348 kts | 269° |
| 2026-05-08 06:25 | 22.22843 | 114.65672 | 14763 ft | 346 kts | 269° |
| 2026-05-08 06:26 | 22.22812 | 114.63079 | 14288 ft | 344 kts | 269° |
| 2026-05-08 06:26 | 22.22779 | 114.60536 | 14120 ft | 333 kts | 269° |
| 2026-05-08 06:26 | 22.22748 | 114.58080 | 14005 ft | 321 kts | 270° |
| 2026-05-08 06:26 | 22.22720 | 114.55717 | 13887 ft | 310 kts | 270° |
| 2026-05-08 06:27 | 22.22691 | 114.53411 | 13647 ft | 304 kts | 270° |
| 2026-05-08 06:27 | 22.22663 | 114.51134 | 13296 ft | 302 kts | 269° |
| 2026-05-08 06:27 | 22.22635 | 114.48884 | 13048 ft | 298 kts | 269° |
| 2026-05-08 06:27 | 22.22605 | 114.46649 | 12800 ft | 297 kts | 269° |
| 2026-05-08 06:28 | 22.22572 | 114.44426 | 12557 ft | 296 kts | 269° |
| 2026-05-08 06:28 | 22.22541 | 114.42211 | 12312 ft | 295 kts | 269° |
| 2026-05-08 06:28 | 22.22511 | 114.40000 | 12068 ft | 294 kts | 269° |
| 2026-05-08 06:28 | 22.22479 | 114.37797 | 11819 ft | 293 kts | 269° |
| 2026-05-08 06:29 | 22.22447 | 114.35602 | 11615 ft | 292 kts | 269° |
| 2026-05-08 06:29 | 22.22414 | 114.33409 | 11392 ft | 292 kts | 269° |
| 2026-05-08 06:29 | 22.22381 | 114.31218 | 11153 ft | 291 kts | 269° |
| 2026-05-08 06:29 | 22.22349 | 114.29039 | 10910 ft | 290 kts | 269° |
| 2026-05-08 06:30 | 22.22317 | 114.26863 | 10673 ft | 289 kts | 269° |
| 2026-05-08 06:30 | 22.22286 | 114.24694 | 10431 ft | 288 kts | 269° |
| 2026-05-08 06:30 | 22.22257 | 114.22538 | 10191 ft | 288 kts | 269° |
| 2026-05-08 06:30 | 22.22226 | 114.20381 | 9955 ft | 287 kts | 269° |
| 2026-05-08 06:31 | 22.22192 | 114.18257 | 9811 ft | 278 kts | 269° |
| 2026-05-08 06:31 | 22.22160 | 114.16202 | 9689 ft | 270 kts | 269° |
| 2026-05-08 06:31 | 22.22130 | 114.14215 | 9556 ft | 261 kts | 269° |
| 2026-05-08 06:31 | 22.22100 | 114.12288 | 9427 ft | 253 kts | 269° |
| 2026-05-08 06:32 | 22.22071 | 114.10417 | 9301 ft | 245 kts | 269° |
| 2026-05-08 06:32 | 22.22042 | 114.08627 | 9131 ft | 239 kts | 269° |
| 2026-05-08 06:32 | 22.22014 | 114.06819 | 8846 ft | 238 kts | 269° |
| 2026-05-08 06:32 | 22.21987 | 114.05063 | 8544 ft | 237 kts | 269° |
| 2026-05-08 06:33 | 22.21959 | 114.03288 | 8271 ft | 235 kts | 269° |
| 2026-05-08 06:33 | 22.21919 | 114.01527 | 8007 ft | 233 kts | 268° |
| 2026-05-08 06:33 | 22.21863 | 113.99785 | 7721 ft | 233 kts | 268° |
| 2026-05-08 06:33 | 22.21801 | 113.98032 | 7364 ft | 236 kts | 268° |
| 2026-05-08 06:34 | 22.21736 | 113.96212 | 6766 ft | 249 kts | 268° |
| 2026-05-08 06:34 | 22.21674 | 113.94341 | 6313 ft | 246 kts | 270° |
| 2026-05-08 06:34 | 22.22020 | 113.92563 | 5857 ft | 241 kts | 298° |
| 2026-05-08 06:34 | 22.23087 | 113.91245 | 5715 ft | 232 kts | 325° |
| 2026-05-08 06:35 | 22.24561 | 113.90596 | 5460 ft | 230 kts | 352° |
| 2026-05-08 06:35 | 22.26158 | 113.90590 | 5159 ft | 230 kts | 1° |
| 2026-05-08 06:35 | 22.27217 | 113.90631 | 4964 ft | 230 kts | 2° |
| 2026-05-08 06:35 | 22.29256 | 113.91229 | 4610 ft | 228 kts | 29° |
| 2026-05-08 06:36 | 22.30111 | 113.91881 | 4518 ft | 228 kts | 42° |
| 2026-05-08 06:36 | 22.31374 | 113.93715 | 4507 ft | 231 kts | 66° |
| 2026-05-08 06:36 | 22.31704 | 113.94810 | 4312 ft | 234 kts | 79° |
| 2026-05-08 06:36 | 22.31847 | 113.96539 | 4005 ft | 226 kts | 86° |
| 2026-05-08 06:37 | 22.31952 | 113.98183 | 3724 ft | 213 kts | 85° |
| 2026-05-08 06:37 | 22.32054 | 113.99741 | 3470 ft | 202 kts | 84° |
| 2026-05-08 06:37 | 22.32152 | 114.01228 | 3236 ft | 197 kts | 85° |
| 2026-05-08 06:37 | 22.32247 | 114.02692 | 3028 ft | 196 kts | 84° |
| 2026-05-08 06:38 | 22.32342 | 114.04140 | 2757 ft | 188 kts | 85° |
| 2026-05-08 06:38 | 22.32431 | 114.05515 | 2527 ft | 180 kts | 84° |
| 2026-05-08 06:38 | 22.32518 | 114.06838 | 2305 ft | 175 kts | 84° |
| 2026-05-08 06:38 | 22.32605 | 114.08139 | 2108 ft | 173 kts | 84° |
| 2026-05-08 06:39 | 22.32692 | 114.09431 | 1907 ft | 172 kts | 85° |
| 2026-05-08 06:39 | 22.32773 | 114.10686 | 1683 ft | 160 kts | 85° |
| 2026-05-08 06:39 | 22.32847 | 114.11849 | 1453 ft | 152 kts | 85° |
| 2026-05-08 06:39 | 22.32921 | 114.12976 | 1247 ft | 149 kts | 85° |
| 2026-05-08 06:40 | 22.32994 | 114.14083 | 1051 ft | 148 kts | 85° |
| 2026-05-08 06:40 | 22.33070 | 114.15190 | 863 ft | 148 kts | 86° |
| 2026-05-08 06:40 | 22.33152 | 114.16305 | 659 ft | 149 kts | 86° |
| 2026-05-08 06:40 | 22.33215 | 114.17413 | 486 ft | 148 kts | 91° |
| 2026-05-08 06:41 | 22.33089 | 114.18511 | 349 ft | 148 kts | 115° |
| 2026-05-08 06:41 | 22.32451 | 114.19351 | 163 ft | 146 kts | 137° |
| 2026-05-08 06:41 | 22.31758 | 114.20117 | 38 ft | 132 kts | 134° |
| 2026-05-08 06:41 | 22.31226 | 114.20712 | 35 ft | 86 kts | 134° |
| 2026-05-08 06:42 | 22.30928 | 114.21046 | 35 ft | 45 kts | 133° |
| 2026-05-08 06:42 | 22.30742 | 114.21256 | 35 ft | 35 kts | 134° |
| 2026-05-08 06:42 | 22.30584 | 114.21433 | 34 ft | 30 kts | 133° |
| 2026-05-08 06:42 | 22.30459 | 114.21571 | 35 ft | 19 kts | 135° |
| 2026-05-08 06:43 | 22.30444 | 114.21671 | 34 ft | 15 kts | 48° |
| 2026-05-08 06:43 | 22.30520 | 114.21671 | 35 ft | 13 kts | 314° |
| 2026-05-08 06:43 | 22.30587 | 114.21596 | 34 ft | 15 kts | 314° |
| 2026-05-08 06:43 | 22.30666 | 114.21507 | 35 ft | 18 kts | 314° |
| 2026-05-08 06:44 | 22.30761 | 114.21401 | 35 ft | 22 kts | 314° |
| 2026-05-08 06:44 | 22.30882 | 114.21264 | 35 ft | 27 kts | 311° |
| 2026-05-08 06:44 | 22.31010 | 114.21106 | 35 ft | 29 kts | 314° |
| 2026-05-08 06:44 | 22.31151 | 114.20948 | 35 ft | 30 kts | 315° |
| 2026-05-08 06:45 | 22.31290 | 114.20793 | 36 ft | 26 kts | 314° |
| 2026-05-08 06:45 | 22.31401 | 114.20670 | 36 ft | 24 kts | 314° |
| 2026-05-08 06:45 | 22.31521 | 114.20537 | 36 ft | 26 kts | 314° |
| 2026-05-08 06:45 | 22.31651 | 114.20391 | 36 ft | 28 kts | 314° |
| 2026-05-08 06:46 | 22.31788 | 114.20238 | 35 ft | 28 kts | 314° |
| 2026-05-08 06:46 | 22.31914 | 114.20097 | 35 ft | 24 kts | 314° |
| 2026-05-08 06:46 | 22.32026 | 114.19971 | 35 ft | 23 kts | 315° |
| 2026-05-08 06:46 | 22.32145 | 114.19839 | 35 ft | 26 kts | 314° |
| 2026-05-08 06:47 | 22.32242 | 114.19728 | 35 ft | 17 kts | 313° |
| 2026-05-08 06:47 | 22.32321 | 114.19645 | 36 ft | 14 kts | 317° |
| 2026-05-08 06:47 | 22.32399 | 114.19568 | 34 ft | 15 kts | 318° |
| 2026-05-08 06:47 | 22.32452 | 114.19548 | 36 ft | 7 kts | 36° |
| 2026-05-08 06:48 | 22.32492 | 114.19589 | 37 ft | 8 kts | 46° |
| 2026-05-08 06:48 | 22.32539 | 114.19640 | 34 ft | 11 kts | 44° |
| 2026-05-08 06:48 | 22.32544 | 114.19703 | 37 ft | 8 kts | 89° |
| 2026-05-08 06:48 | 22.32545 | 114.19738 | 37 ft | 2 kts | 89° |
| 2026-05-08 06:49 | 22.32546 | 114.19745 | 37 ft | 0 kts | 89° |